Time;durP1;ratioP1;P1;durP2;ratioP2;P2;SDS_P1;SDS_P2;PMS_P1;PMS_P2;Temp;Humidity;BMP_temperature;BMP_pressure;BME280_temperature;BME280_humidity;BME280_pressure;Samples;Min_cycle;Max_cycle;Signal;HPM_P1;HPM_P2
2022/09/10 00:00:53;;;;;;;15.27;5.35;;;16.10;90.10;;;;;;4984359;28;20161;-71
2022/09/10 00:03:20;;;;;;;15.35;4.60;;;16.10;90.20;;;;;;4983938;28;20114;-71
2022/09/10 00:05:46;;;;;;;19.33;6.20;;;16.10;90.30;;;;;;4983265;28;20035;-73
2022/09/10 00:08:12;;;;;;;19.88;5.90;;;16.10;90.20;;;;;;4984294;28;20117;-71
2022/09/10 00:10:43;;;;;;;21.08;6.30;;;16.00;90.30;;;;;;4984546;28;20116;-73
2022/09/10 00:13:10;;;;;;;20.58;6.28;;;16.00;90.50;;;;;;4982097;28;20050;-73
2022/09/10 00:15:44;;;;;;;20.30;7.00;;;16.00;90.60;;;;;;4976699;28;20034;-72
2022/09/10 00:18:10;;;;;;;16.75;6.45;;;16.00;90.60;;;;;;4978935;28;20041;-72
2022/09/10 00:20:52;;;;;;;21.15;6.45;;;16.00;90.60;;;;;;4983048;28;20657;-73
2022/09/10 00:23:21;;;;;;;14.95;5.55;;;15.90;90.70;;;;;;4979392;28;20559;-72
2022/09/10 00:25:48;;;;;;;17.05;5.30;;;15.90;90.70;;;;;;4980787;28;20068;-72
2022/09/10 00:28:15;;;;;;;16.65;5.85;;;15.90;90.70;;;;;;4984012;28;20038;-73
2022/09/10 00:30:46;;;;;;;15.38;5.75;;;15.90;90.80;;;;;;4978795;28;20425;-72
2022/09/10 00:33:13;;;;;;;19.83;6.80;;;15.90;90.80;;;;;;4983092;28;20038;-73
2022/09/10 00:35:39;;;;;;;16.85;5.43;;;15.90;90.80;;;;;;4982797;28;21237;-73
2022/09/10 00:38:06;;;;;;;19.63;6.10;;;15.90;90.70;;;;;;4977692;28;20050;-73
2022/09/10 00:40:32;;;;;;;22.08;5.47;;;15.80;90.80;;;;;;4979972;28;20389;-72
2022/09/10 00:42:58;;;;;;;18.55;7.03;;;15.90;90.80;;;;;;4980100;28;20050;-74
2022/09/10 00:45:30;;;;;;;14.27;5.75;;;15.90;90.80;;;;;;4981124;28;20046;-72
2022/09/10 00:48:00;;;;;;;13.98;5.60;;;15.90;90.90;;;;;;4984692;28;20101;-73
2022/09/10 00:50:30;;;;;;;18.33;5.68;;;15.90;90.80;;;;;;4982653;28;20038;-72
2022/09/10 00:53:00;;;;;;;16.52;5.95;;;15.90;90.80;;;;;;4985409;28;20529;-73
2022/09/10 00:55:27;;;;;;;16.83;5.70;;;15.80;90.70;;;;;;4983561;28;20077;-72
2022/09/10 00:57:57;;;;;;;14.73;6.45;;;15.80;90.90;;;;;;4980243;28;20613;-73
2022/09/10 01:00:23;;;;;;;22.10;6.70;;;15.80;90.80;;;;;;4979368;28;20125;-72
2022/09/10 01:02:48;;;;;;;18.42;6.30;;;15.80;90.90;;;;;;4983605;28;20200;-73
2022/09/10 01:05:16;;;;;;;20.98;7.13;;;15.80;90.90;;;;;;4978106;28;20582;-72
2022/09/10 01:07:42;;;;;;;16.02;5.85;;;15.70;91.00;;;;;;4979972;28;20409;-72
2022/09/10 01:10:17;;;;;;;16.45;6.15;;;15.70;91.10;;;;;;4983719;28;20040;-72
2022/09/10 01:13:17;;;;;;;14.75;5.95;;;15.70;91.20;;;;;;4980956;28;20041;-72
2022/09/10 01:16:09;;;;;;;19.25;7.25;;;15.80;91.20;;;;;;4980668;28;20039;-72
2022/09/10 01:18:44;;;;;;;16.98;6.32;;;15.70;91.10;;;;;;4988252;28;20113;-73
2022/09/10 01:21:25;;;;;;;19.33;6.63;;;15.70;91.20;;;;;;4983482;28;20030;-73
2022/09/10 01:24:12;;;;;;;22.25;7.50;;;15.70;91.30;;;;;;4980436;28;20035;-71
2022/09/10 01:27:25;;;;;;;15.15;5.82;;;15.70;91.30;;;;;;4984302;28;20509;-73
2022/09/10 01:30:00;;;;;;;17.75;6.82;;;15.70;91.40;;;;;;4981384;28;20162;-72
2022/09/10 01:32:43;;;;;;;16.48;6.82;;;15.70;91.50;;;;;;4980701;28;20042;-72
2022/09/10 01:35:20;;;;;;;19.42;6.80;;;15.70;91.50;;;;;;4983394;28;20042;-72
2022/09/10 01:37:52;;;;;;;19.10;6.53;;;15.70;91.50;;;;;;4986576;28;20169;-73
2022/09/10 01:40:18;;;;;;;15.68;6.18;;;15.70;91.60;;;;;;4983299;28;20068;-72
2022/09/10 01:42:44;;;;;;;16.85;6.63;;;15.70;91.50;;;;;;4986304;28;20130;-73
2022/09/10 01:45:14;;;;;;;17.52;6.40;;;15.70;91.50;;;;;;4980815;28;20109;-72
2022/09/10 01:47:43;;;;;;;16.48;6.28;;;15.70;91.50;;;;;;4983175;28;20035;-72
2022/09/10 01:50:28;;;;;;;15.50;6.05;;;15.60;91.60;;;;;;4984374;28;20044;-73
2022/09/10 01:53:29;;;;;;;22.90;6.72;;;15.60;91.60;;;;;;4983132;28;20034;-73
2022/09/10 01:56:17;;;;;;;16.55;6.78;;;15.70;91.80;;;;;;4979100;28;20027;-72
2022/09/10 01:58:43;;;;;;;15.10;6.40;;;15.70;91.90;;;;;;4965773;28;20094;-72
2022/09/10 02:01:47;;;;;;;23.10;6.95;;;15.70;91.90;;;;;;4968731;28;20077;-73
2022/09/10 02:04:14;;;;;;;15.73;6.38;;;15.70;91.70;;;;;;4965255;28;20039;-73
2022/09/10 02:06:44;;;;;;;15.77;6.85;;;15.70;91.80;;;;;;4985235;28;20442;-72
2022/09/10 02:09:13;;;;;;;19.45;7.93;;;15.70;91.70;;;;;;4987012;28;20038;-71
2022/09/10 02:11:55;;;;;;;20.35;6.45;;;15.70;91.70;;;;;;4983736;28;20042;-72
2022/09/10 02:14:21;;;;;;;20.88;8.27;;;15.60;91.60;;;;;;4983225;28;20490;-71
2022/09/10 02:16:53;;;;;;;20.45;8.00;;;15.60;91.70;;;;;;4983357;28;20065;-72
2022/09/10 02:19:19;;;;;;;17.45;7.00;;;15.60;91.80;;;;;;4989598;28;20157;-72
2022/09/10 02:21:45;;;;;;;19.17;7.82;;;15.60;91.90;;;;;;4977886;28;20641;-72
2022/09/10 02:24:11;;;;;;;16.77;7.43;;;15.50;91.90;;;;;;4984656;28;20065;-72
2022/09/10 02:26:40;;;;;;;19.23;7.50;;;15.50;91.90;;;;;;4983522;28;20033;-72
2022/09/10 02:29:07;;;;;;;19.83;7.32;;;15.50;92.00;;;;;;4986500;28;20035;-72
2022/09/10 02:31:32;;;;;;;17.15;7.13;;;15.50;92.00;;;;;;4987069;28;20488;-72
2022/09/10 02:33:58;;;;;;;19.27;8.23;;;15.50;92.20;;;;;;4985242;28;20034;-73
2022/09/10 02:36:24;;;;;;;18.58;8.38;;;15.50;92.20;;;;;;4986789;28;20042;-72
2022/09/10 02:38:51;;;;;;;26.48;8.68;;;15.50;92.20;;;;;;4987094;28;20129;-72
2022/09/10 02:41:17;;;;;;;21.30;9.13;;;15.50;92.20;;;;;;4982639;28;20069;-72
2022/09/10 02:43:45;;;;;;;18.38;8.68;;;15.50;92.20;;;;;;4985925;28;20118;-73
2022/09/10 02:46:11;;;;;;;21.35;8.65;;;15.50;92.20;;;;;;4981036;28;20038;-73
2022/09/10 02:48:38;;;;;;;19.55;9.43;;;15.50;92.20;;;;;;4983537;28;20054;-72
2022/09/10 02:51:04;;;;;;;25.80;10.10;;;15.50;92.20;;;;;;4984550;28;20454;-73
2022/09/10 02:53:30;;;;;;;19.60;9.57;;;15.60;92.30;;;;;;4985684;28;20080;-73
2022/09/10 02:55:56;;;;;;;21.70;9.80;;;15.50;92.20;;;;;;4978912;28;20042;-72
2022/09/10 02:58:22;;;;;;;21.38;10.25;;;15.60;92.20;;;;;;4981707;28;20049;-72
2022/09/10 03:00:48;;;;;;;20.40;10.93;;;15.60;92.20;;;;;;4986704;28;20081;-72
2022/09/10 03:03:13;;;;;;;20.35;10.63;;;15.60;92.10;;;;;;4983317;28;20045;-73
2022/09/10 03:05:40;;;;;;;20.80;11.90;;;15.50;92.10;;;;;;4985095;28;20042;-72
2022/09/10 03:08:07;;;;;;;22.65;11.48;;;15.50;92.20;;;;;;4984555;28;20034;-71
2022/09/10 03:10:33;;;;;;;23.92;12.20;;;15.50;92.20;;;;;;4981121;28;20043;-72
2022/09/10 03:12:59;;;;;;;24.48;13.25;;;15.50;92.30;;;;;;4984645;28;20057;-73
2022/09/10 03:15:25;;;;;;;26.42;13.43;;;15.50;92.40;;;;;;4984267;28;20042;-72
2022/09/10 03:17:51;;;;;;;22.33;12.35;;;15.50;92.30;;;;;;4979825;28;20054;-72
2022/09/10 03:20:17;;;;;;;23.35;12.55;;;15.50;92.30;;;;;;4982409;28;20442;-72
2022/09/10 03:22:43;;;;;;;22.50;12.95;;;15.50;92.20;;;;;;4983867;28;20181;-72
2022/09/10 03:25:10;;;;;;;22.80;12.52;;;15.50;92.20;;;;;;4983365;28;20046;-73
2022/09/10 03:27:36;;;;;;;23.05;13.23;;;15.40;92.20;;;;;;4981540;28;20799;-71
2022/09/10 03:30:01;;;;;;;18.75;12.88;;;15.40;92.30;;;;;;4982514;28;20026;-72
2022/09/10 03:32:27;;;;;;;25.13;12.73;;;15.40;92.30;;;;;;4985813;28;20046;-72
2022/09/10 03:34:54;;;;;;;22.95;13.63;;;15.40;92.30;;;;;;4984604;28;20034;-74
2022/09/10 03:37:22;;;;;;;25.45;13.60;;;15.30;92.30;;;;;;4984804;28;20046;-72
2022/09/10 03:39:48;;;;;;;21.05;13.98;;;15.40;92.30;;;;;;4979042;28;20050;-72
2022/09/10 03:42:14;;;;;;;23.23;14.15;;;15.30;92.30;;;;;;4985111;28;20050;-72
2022/09/10 03:44:40;;;;;;;23.33;15.07;;;15.30;92.40;;;;;;4985264;28;20076;-73
2022/09/10 03:47:05;;;;;;;22.58;15.55;;;15.30;92.40;;;;;;4979731;28;20039;-72
2022/09/10 03:49:31;;;;;;;31.40;16.80;;;15.30;92.40;;;;;;4981903;28;20069;-73
2022/09/10 03:51:57;;;;;;;25.38;16.20;;;15.30;92.50;;;;;;4983945;28;20062;-72
2022/09/10 03:54:24;;;;;;;32.00;19.58;;;15.20;92.40;;;;;;4980746;28;20529;-73
2022/09/10 03:56:49;;;;;;;33.08;18.48;;;15.30;92.60;;;;;;4986108;28;20035;-71
2022/09/10 03:59:16;;;;;;;26.50;19.23;;;15.30;92.60;;;;;;4984528;28;20161;-72
2022/09/10 04:01:42;;;;;;;32.70;20.20;;;15.20;92.60;;;;;;4980542;28;20053;-72
2022/09/10 04:04:07;;;;;;;29.02;19.50;;;15.30;92.80;;;;;;4982680;28;20124;-72
2022/09/10 04:06:34;;;;;;;29.40;22.38;;;15.20;92.70;;;;;;4982468;28;20497;-73
2022/09/10 04:09:00;;;;;;;32.90;22.08;;;15.30;92.80;;;;;;4983360;28;20141;-72
2022/09/10 04:11:26;;;;;;;32.50;22.48;;;15.30;92.70;;;;;;4983107;28;20557;-73
2022/09/10 04:13:55;;;;;;;31.85;22.63;;;15.30;92.70;;;;;;4982311;28;20042;-73
2022/09/10 04:16:22;;;;;;;33.50;23.83;;;15.30;92.80;;;;;;4975772;28;20510;-73
2022/09/10 04:18:48;;;;;;;30.55;22.85;;;15.30;92.70;;;;;;4981631;28;20076;-72
2022/09/10 04:21:14;;;;;;;33.33;23.42;;;15.30;92.70;;;;;;4984129;28;20117;-71
2022/09/10 04:23:40;;;;;;;36.58;23.05;;;15.30;92.70;;;;;;4982825;28;20054;-72
2022/09/10 04:26:14;;;;;;;36.83;24.05;;;15.20;92.80;;;;;;4985161;28;20089;-72
2022/09/10 04:28:40;;;;;;;33.58;23.30;;;15.20;92.70;;;;;;4981287;28;20049;-73
2022/09/10 04:31:06;;;;;;;35.08;25.13;;;15.20;92.80;;;;;;4983261;28;20045;-72
2022/09/10 04:33:32;;;;;;;32.50;22.90;;;15.20;92.70;;;;;;4982946;28;20046;-71
2022/09/10 04:36:01;;;;;;;33.63;24.73;;;15.20;92.80;;;;;;4982039;28;20487;-71
2022/09/10 04:38:31;;;;;;;37.92;24.73;;;15.20;92.80;;;;;;4961691;28;20162;-71
2022/09/10 04:40:57;;;;;;;34.92;25.00;;;15.20;92.80;;;;;;4961804;28;20479;-72
2022/09/10 04:43:27;;;;;;;35.05;23.88;;;15.20;92.80;;;;;;4963806;28;20581;-72
2022/09/10 04:45:54;;;;;;;36.60;24.35;;;15.30;92.70;;;;;;4960460;28;20467;-72
2022/09/10 04:48:23;;;;;;;29.48;22.42;;;15.30;92.60;;;;;;4961744;28;20548;-72
2022/09/10 04:50:52;;;;;;;31.50;24.17;;;15.30;92.60;;;;;;4983614;28;20049;-72
2022/09/10 04:53:18;;;;;;;31.35;22.48;;;15.30;92.60;;;;;;4983589;28;20038;-72
2022/09/10 04:55:46;;;;;;;34.67;25.00;;;15.30;92.60;;;;;;4984539;28;20435;-73
2022/09/10 04:58:12;;;;;;;31.48;22.92;;;15.30;92.60;;;;;;4983562;28;20053;-72
2022/09/10 05:00:39;;;;;;;36.70;25.27;;;15.30;92.60;;;;;;4983798;28;20039;-73
2022/09/10 05:03:06;;;;;;;33.97;26.58;;;15.30;92.60;;;;;;4984792;28;20041;-72
2022/09/10 05:05:32;;;;;;;31.48;25.02;;;15.30;92.60;;;;;;4982652;28;20081;-72
2022/09/10 05:07:59;;;;;;;35.70;25.08;;;15.30;92.60;;;;;;4984100;28;20049;-72
2022/09/10 05:10:28;;;;;;;35.85;27.33;;;15.20;92.60;;;;;;4983307;28;20053;-72
2022/09/10 05:12:54;;;;;;;34.03;26.77;;;15.20;92.60;;;;;;4980283;28;20054;-72
2022/09/10 05:15:20;;;;;;;33.83;27.17;;;15.30;92.70;;;;;;4981744;28;20831;-71
2022/09/10 05:17:46;;;;;;;34.33;27.45;;;15.30;92.70;;;;;;4984030;28;20050;-72
2022/09/10 05:20:12;;;;;;;32.63;25.33;;;15.30;92.70;;;;;;4980682;28;20031;-72
2022/09/10 05:22:38;;;;;;;36.15;27.38;;;15.30;92.70;;;;;;4988991;28;20390;-72
2022/09/10 05:25:05;;;;;;;35.50;26.75;;;15.30;92.70;;;;;;4984124;28;20126;-72
2022/09/10 05:27:31;;;;;;;32.30;25.17;;;15.30;92.60;;;;;;4975922;28;20027;-73
2022/09/10 05:29:56;;;;;;;34.80;26.70;;;15.30;92.70;;;;;;4981508;28;20520;-73
2022/09/10 05:32:23;;;;;;;35.80;27.73;;;15.30;92.70;;;;;;4980141;28;20036;-73
2022/09/10 05:34:48;;;;;;;31.50;25.75;;;15.30;92.70;;;;;;4982351;28;20780;-73
2022/09/10 05:37:15;;;;;;;33.08;28.17;;;15.40;92.60;;;;;;4982050;28;20034;-74
2022/09/10 05:39:40;;;;;;;31.50;27.75;;;15.40;92.60;;;;;;4982204;28;20173;-73
2022/09/10 05:42:06;;;;;;;37.00;28.50;;;15.40;92.60;;;;;;4980870;28;20129;-73
2022/09/10 05:44:32;;;;;;;38.75;29.75;;;15.40;92.60;;;;;;4976503;28;20041;-74
2022/09/10 05:46:58;;;;;;;34.72;27.63;;;15.50;92.50;;;;;;4977259;28;20043;-73
2022/09/10 05:49:24;;;;;;;33.15;28.08;;;15.50;92.50;;;;;;4977965;28;20042;-73
2022/09/10 05:51:50;;;;;;;37.67;27.25;;;15.50;92.40;;;;;;4980135;28;20517;-73
2022/09/10 05:54:16;;;;;;;40.08;28.13;;;15.50;92.40;;;;;;4985316;28;20039;-73
2022/09/10 05:56:41;;;;;;;35.65;27.63;;;15.50;92.30;;;;;;4982107;28;20125;-74
2022/09/10 05:59:09;;;;;;;33.33;26.75;;;15.60;92.40;;;;;;4978156;28;20453;-73
2022/09/10 06:01:35;;;;;;;34.75;25.42;;;15.60;92.30;;;;;;4987731;28;20031;-76
2022/09/10 06:04:01;;;;;;;36.03;27.20;;;15.60;92.30;;;;;;4983447;28;20340;-77
2022/09/10 06:06:27;;;;;;;35.70;26.27;;;15.60;92.20;;;;;;4965020;28;20031;-77
2022/09/10 06:08:56;;;;;;;33.80;26.13;;;15.60;92.10;;;;;;4958435;28;20039;-76
2022/09/10 06:11:22;;;;;;;33.92;26.88;;;15.60;92.10;;;;;;4959250;28;20042;-77
2022/09/10 06:13:48;;;;;;;34.55;26.13;;;15.60;92.00;;;;;;4961111;28;20186;-77
2022/09/10 06:16:14;;;;;;;33.92;26.38;;;15.70;92.00;;;;;;4963114;28;20057;-77
2022/09/10 06:18:41;;;;;;;32.58;25.77;;;15.70;91.90;;;;;;4961483;28;20051;-76
2022/09/10 06:21:11;;;;;;;33.42;27.15;;;15.80;91.70;;;;;;4958810;28;20039;-77
2022/09/10 06:23:38;;;;;;;34.72;27.35;;;15.80;91.50;;;;;;4966494;28;20742;-77
2022/09/10 06:26:15;;;;;;;34.47;26.45;;;15.90;91.40;;;;;;4968402;28;20031;-74
2022/09/10 06:28:42;;;;;;;38.58;26.50;;;16.00;91.30;;;;;;4972479;28;21231;-75
2022/09/10 06:31:10;;;;;;;31.95;26.13;;;16.00;91.00;;;;;;4980533;28;20546;-75
2022/09/10 06:33:36;;;;;;;39.05;28.60;;;16.00;90.90;;;;;;4986082;28;20035;-75
2022/09/10 06:36:02;;;;;;;33.15;27.25;;;16.10;90.60;;;;;;4984745;28;20058;-75
2022/09/10 06:38:32;;;;;;;30.33;25.83;;;16.20;90.60;;;;;;4983019;28;20053;-75
2022/09/10 06:41:00;;;;;;;30.52;24.00;;;16.20;90.30;;;;;;4984454;28;20531;-75
2022/09/10 06:43:27;;;;;;;32.65;26.23;;;16.30;90.20;;;;;;4984494;28;20034;-75
2022/09/10 06:45:53;;;;;;;35.75;25.80;;;16.30;90.10;;;;;;4984891;28;20674;-75
2022/09/10 06:48:26;;;;;;;30.52;26.20;;;16.40;89.90;;;;;;4983640;28;20057;-76
2022/09/10 06:50:54;;;;;;;33.08;26.55;;;16.50;89.90;;;;;;4983919;28;20135;-75
2022/09/10 06:53:21;;;;;;;33.63;26.58;;;16.60;89.70;;;;;;4983260;28;20042;-76
2022/09/10 06:55:53;;;;;;;32.42;25.33;;;16.70;89.40;;;;;;4985963;28;20427;-75
2022/09/10 06:58:22;;;;;;;35.20;25.33;;;16.80;89.00;;;;;;4984494;28;20053;-75
2022/09/10 07:00:49;;;;;;;29.25;25.63;;;16.80;88.70;;;;;;4984124;28;20104;-75
2022/09/10 07:03:16;;;;;;;30.65;25.98;;;16.90;88.80;;;;;;4986279;28;20470;-75
2022/09/10 07:05:44;;;;;;;32.50;27.13;;;17.00;88.50;;;;;;4985813;28;20042;-75
2022/09/10 07:08:11;;;;;;;30.13;24.58;;;17.10;88.00;;;;;;4982992;28;20526;-76
2022/09/10 07:10:37;;;;;;;32.55;25.88;;;17.10;87.70;;;;;;4976867;28;20073;-75
2022/09/10 07:13:03;;;;;;;33.58;26.35;;;17.20;87.60;;;;;;4982979;28;20050;-75
2022/09/10 07:15:29;;;;;;;36.42;28.52;;;17.20;87.40;;;;;;4983936;28;20033;-75
2022/09/10 07:17:55;;;;;;;35.03;27.98;;;17.30;87.80;;;;;;4986644;28;20391;-75
2022/09/10 07:20:24;;;;;;;33.10;27.63;;;17.40;87.10;;;;;;4984143;28;20049;-76
2022/09/10 07:22:52;;;;;;;32.25;27.02;;;17.60;87.20;;;;;;4982197;28;20479;-75
2022/09/10 07:25:18;;;;;;;32.92;27.33;;;17.80;86.10;;;;;;4982211;28;20549;-76
2022/09/10 07:27:45;;;;;;;29.85;26.05;;;17.80;85.70;;;;;;4984924;28;20039;-76
2022/09/10 07:30:11;;;;;;;32.17;25.80;;;17.90;85.60;;;;;;4982035;28;20054;-75
2022/09/10 07:32:39;;;;;;;31.55;26.38;;;17.80;85.70;;;;;;4986964;28;20038;-75
2022/09/10 07:35:06;;;;;;;34.72;26.70;;;17.90;85.90;;;;;;4982109;28;20031;-75
2022/09/10 07:37:32;;;;;;;34.00;27.42;;;18.10;85.60;;;;;;4982247;28;20034;-75
2022/09/10 07:39:58;;;;;;;32.55;28.27;;;18.20;85.70;;;;;;4982336;28;20039;-76
2022/09/10 07:42:24;;;;;;;29.85;25.70;;;18.30;85.40;;;;;;4980852;28;20068;-76
2022/09/10 07:44:50;;;;;;;28.05;25.05;;;18.60;85.20;;;;;;4976923;28;20039;-75
2022/09/10 07:47:16;;;;;;;28.77;25.65;;;18.80;84.60;;;;;;4985200;28;20030;-75
2022/09/10 07:49:43;;;;;;;27.08;24.17;;;19.00;83.40;;;;;;4978887;28;20038;-75
2022/09/10 07:52:10;;;;;;;27.65;24.77;;;19.10;83.00;;;;;;4982790;28;20478;-75
2022/09/10 07:54:36;;;;;;;31.52;25.10;;;18.90;83.00;;;;;;4984801;28;20041;-75
2022/09/10 07:57:03;;;;;;;30.55;24.98;;;18.80;83.40;;;;;;4985977;28;20026;-75
2022/09/10 07:59:30;;;;;;;24.20;21.60;;;18.70;83.60;;;;;;4980822;28;20049;-76
2022/09/10 08:01:58;;;;;;;25.80;21.10;;;18.60;83.80;;;;;;4981522;28;20037;-76
2022/09/10 08:04:23;;;;;;;24.45;20.90;;;18.50;84.40;;;;;;4984860;28;20030;-75
2022/09/10 08:06:50;;;;;;;24.20;21.55;;;18.50;84.50;;;;;;4983691;28;20035;-75
2022/09/10 08:09:18;;;;;;;24.52;20.70;;;18.40;84.70;;;;;;4983818;28;20046;-75
2022/09/10 08:11:44;;;;;;;24.15;20.40;;;18.40;84.80;;;;;;4989206;28;20468;-75
2022/09/10 08:14:09;;;;;;;27.33;20.42;;;18.40;84.50;;;;;;4981453;28;20046;-76
2022/09/10 08:16:35;;;;;;;28.17;20.25;;;18.40;84.80;;;;;;4977966;28;20046;-76
2022/09/10 08:19:01;;;;;;;26.98;19.90;;;18.60;84.60;;;;;;4984028;28;20074;-76
2022/09/10 08:21:29;;;;;;;24.42;17.77;;;18.80;84.10;;;;;;4983865;28;20034;-76
2022/09/10 08:23:54;;;;;;;22.23;16.73;;;19.00;83.30;;;;;;4984055;28;20035;-75
2022/09/10 08:26:23;;;;;;;25.50;17.67;;;19.10;82.70;;;;;;4985053;28;20041;-75
2022/09/10 08:28:54;;;;;;;20.58;15.05;;;19.10;83.40;;;;;;4984361;28;20042;-76
2022/09/10 08:31:21;;;;;;;22.05;15.15;;;19.10;82.90;;;;;;4984714;28;20602;-75
2022/09/10 08:33:51;;;;;;;21.40;16.23;;;19.40;82.40;;;;;;4980732;28;20398;-74
2022/09/10 08:36:18;;;;;;;21.90;15.82;;;19.40;81.40;;;;;;4981671;28;20376;-74
2022/09/10 08:38:44;;;;;;;19.45;14.90;;;19.50;82.20;;;;;;4975577;28;20189;-75
2022/09/10 08:41:38;;;;;;;20.40;13.23;;;19.90;80.30;;;;;;4977123;28;20051;-75
2022/09/10 08:44:09;;;;;;;15.82;11.93;;;20.30;79.00;;;;;;4972752;28;20031;-75
2022/09/10 08:46:44;;;;;;;20.40;13.10;;;20.20;77.20;;;;;;4975615;28;20497;-76
2022/09/10 08:49:24;;;;;;;16.48;12.27;;;20.10;78.30;;;;;;4977928;28;20042;-75
2022/09/10 08:52:10;;;;;;;19.08;13.40;;;20.10;78.70;;;;;;4979867;28;20026;-76
2022/09/10 08:54:42;;;;;;;20.30;13.18;;;20.00;78.90;;;;;;4975501;28;20031;-76
2022/09/10 08:57:25;;;;;;;19.52;13.75;;;20.10;78.80;;;;;;4984349;28;20046;-76
2022/09/10 08:59:54;;;;;;;16.77;12.43;;;20.30;78.50;;;;;;4992500;28;20488;-75
2022/09/10 09:02:25;;;;;;;21.17;11.90;;;20.30;78.20;;;;;;4981254;28;20042;-77
2022/09/10 09:05:17;;;;;;;18.13;10.65;;;20.10;77.90;;;;;;4979384;28;20035;-76
2022/09/10 09:07:43;;;;;;;16.02;9.80;;;20.20;77.90;;;;;;4981280;28;20043;-76
2022/09/10 09:10:39;;;;;;;15.82;9.40;;;20.20;77.00;;;;;;4979526;28;20034;-78
2022/09/10 09:13:20;;;;;;;19.48;10.13;;;20.40;76.80;;;;;;4982974;28;20049;-78
2022/09/10 09:15:52;;;;;;;15.43;8.80;;;20.30;76.90;;;;;;4981673;28;20146;-75
2022/09/10 09:18:55;;;;;;;18.58;9.95;;;20.40;76.50;;;;;;4983274;28;20518;-76
2022/09/10 09:21:51;;;;;;;14.40;8.63;;;20.40;76.60;;;;;;4960250;28;20533;-76
2022/09/10 09:24:32;;;;;;;15.60;9.18;;;20.60;76.40;;;;;;4963177;28;20047;-75
2022/09/10 09:27:08;;;;;;;16.65;9.88;;;20.70;75.70;;;;;;4964400;28;20487;-76
2022/09/10 09:29:58;;;;;;;17.23;9.48;;;20.70;75.40;;;;;;4964714;28;20039;-76
2022/09/10 09:32:25;;;;;;;16.38;9.18;;;20.80;74.80;;;;;;4965883;28;20085;-76
2022/09/10 09:35:15;;;;;;;14.55;9.35;;;20.70;76.30;;;;;;4966261;28;20050;-77
2022/09/10 09:37:46;;;;;;;17.85;11.00;;;20.80;75.40;;;;;;4973168;28;20054;-78
2022/09/10 09:40:32;;;;;;;16.60;11.43;;;20.20;76.00;;;;;;4966663;28;20113;-75
2022/09/10 09:43:04;;;;;;;19.70;13.45;;;19.80;77.30;;;;;;4982964;28;20383;-75
2022/09/10 09:45:42;;;;;;;19.98;13.13;;;19.50;78.80;;;;;;4982688;28;20100;-75
2022/09/10 09:48:11;;;;;;;18.48;13.45;;;19.60;79.60;;;;;;4982368;28;20037;-75
2022/09/10 09:50:40;;;;;;;18.48;12.38;;;19.60;79.00;;;;;;4978109;28;20027;-76
2022/09/10 09:53:07;;;;;;;17.17;12.48;;;20.10;78.80;;;;;;4987520;28;20042;-76
2022/09/10 09:55:46;;;;;;;16.05;11.65;;;20.40;76.30;;;;;;4997535;28;20045;-76
2022/09/10 09:58:20;;;;;;;17.00;11.48;;;20.40;76.60;;;;;;4982316;28;20050;-76
2022/09/10 10:01:02;;;;;;;19.33;11.48;;;20.40;77.20;;;;;;4981222;28;20050;-76
2022/09/10 10:03:29;;;;;;;17.35;10.45;;;20.40;77.40;;;;;;4969913;28;20541;-77
2022/09/10 10:06:04;;;;;;;15.20;10.52;;;20.30;77.30;;;;;;4981069;28;20078;-76
2022/09/10 10:08:36;;;;;;;11.77;7.18;;;20.60;77.10;;;;;;4981030;28;20503;-77
2022/09/10 10:11:03;;;;;;;13.63;6.80;;;20.80;75.40;;;;;;4985664;28;20100;-77
2022/09/10 10:13:40;;;;;;;11.48;6.03;;;20.70;75.40;;;;;;4977841;28;20069;-77
2022/09/10 10:16:26;;;;;;;11.30;4.50;;;20.70;73.70;;;;;;4978386;28;20034;-76
2022/09/10 10:18:51;;;;;;;8.50;4.68;;;20.60;72.80;;;;;;4978400;28;20051;-77
2022/09/10 10:21:21;;;;;;;11.75;4.78;;;21.10;72.00;;;;;;4982249;28;20030;-77
2022/09/10 10:23:47;;;;;;;11.15;5.32;;;21.30;70.50;;;;;;4982625;28;20129;-76
2022/09/10 10:26:31;;;;;;;13.10;5.53;;;21.10;70.20;;;;;;4983912;28;20454;-76
2022/09/10 10:29:06;;;;;;;9.93;4.35;;;21.10;70.70;;;;;;4978679;28;20121;-76
2022/09/10 10:31:41;;;;;;;9.70;4.55;;;21.20;69.50;;;;;;4982374;28;20035;-76
2022/09/10 10:34:15;;;;;;;8.90;4.70;;;21.20;69.60;;;;;;4980482;28;20022;-76
2022/09/10 10:37:05;;;;;;;10.88;4.32;;;21.30;69.80;;;;;;4982766;28;20301;-76
2022/09/10 10:40:01;;;;;;;12.10;5.40;;;20.80;69.90;;;;;;4972383;28;20050;-76
2022/09/10 10:42:35;;;;;;;9.55;4.53;;;20.60;71.30;;;;;;4964372;28;20058;-76
2022/09/10 10:45:38;;;;;;;9.57;5.03;;;20.70;70.50;;;;;;4965742;28;20038;-76
2022/09/10 10:48:25;;;;;;;10.13;5.22;;;20.60;70.80;;;;;;4965620;28;20045;-76
2022/09/10 10:51:18;;;;;;;9.43;4.75;;;20.60;70.40;;;;;;4965286;28;20039;-76
2022/09/10 10:54:03;;;;;;;9.52;4.95;;;20.80;71.20;;;;;;4967077;28;20042;-76
2022/09/10 10:56:56;;;;;;;9.52;4.82;;;20.70;71.60;;;;;;4985252;28;20097;-76
2022/09/10 10:59:53;;;;;;;9.27;4.72;;;20.60;71.50;;;;;;4971457;28;20400;-76
2022/09/10 11:02:53;;;;;;;11.75;4.75;;;21.00;70.10;;;;;;4981904;28;20074;-76
2022/09/10 11:05:21;;;;;;;10.98;4.68;;;21.20;68.80;;;;;;4982305;28;20049;-76
2022/09/10 11:07:48;;;;;;;10.63;4.97;;;21.30;68.60;;;;;;4982777;28;20125;-76
2022/09/10 11:10:20;;;;;;;10.90;5.30;;;21.10;68.50;;;;;;4969366;28;20154;-77
2022/09/10 11:12:55;;;;;;;10.60;4.13;;;21.00;69.70;;;;;;4977207;28;20043;-75
2022/09/10 11:15:35;;;;;;;7.78;4.13;;;21.00;69.40;;;;;;4962691;28;20061;-75
2022/09/10 11:18:10;;;;;;;9.60;4.40;;;21.10;69.00;;;;;;4962236;28;20191;-77
2022/09/10 11:21:10;;;;;;;10.32;4.53;;;21.30;68.90;;;;;;4959631;28;20115;-76
2022/09/10 11:23:51;;;;;;;12.25;4.85;;;21.60;68.70;;;;;;4983276;28;20549;-75
2022/09/10 11:26:48;;;;;;;19.83;5.13;;;22.10;67.20;;;;;;4978639;28;20031;-75
2022/09/10 11:29:42;;;;;;;7.72;4.07;;;22.30;65.30;;;;;;4960430;28;20043;-76
2022/09/10 11:32:27;;;;;;;14.93;4.15;;;22.30;65.30;;;;;;4952687;28;20042;-77
2022/09/10 11:35:14;;;;;;;8.32;3.78;;;22.20;65.10;;;;;;4959491;28;20503;-75
2022/09/10 11:38:23;;;;;;;9.38;3.92;;;22.00;65.70;;;;;;4964419;28;20047;-76
2022/09/10 11:41:08;;;;;;;11.40;4.47;;;22.40;66.10;;;;;;4977196;28;20042;-75
2022/09/10 11:43:41;;;;;;;8.90;4.50;;;22.70;65.70;;;;;;4980266;28;20121;-74
2022/09/10 11:46:14;;;;;;;8.63;3.88;;;23.10;64.10;;;;;;4978370;28;20500;-75
2022/09/10 11:48:49;;;;;;;8.73;3.08;;;22.90;64.30;;;;;;4983736;28;20400;-75
2022/09/10 11:51:23;;;;;;;7.50;3.40;;;22.40;63.40;;;;;;4983977;28;20467;-75
2022/09/10 11:53:49;;;;;;;8.07;3.33;;;22.10;63.70;;;;;;4983608;28;20682;-76
2022/09/10 11:56:33;;;;;;;7.82;3.53;;;22.20;65.60;;;;;;4985857;28;20092;-75
2022/09/10 11:59:13;;;;;;;10.65;4.90;;;22.50;65.90;;;;;;4983370;28;20176;-75
2022/09/10 12:01:48;;;;;;;8.70;3.42;;;22.40;65.10;;;;;;4967595;28;20026;-75
2022/09/10 12:04:39;;;;;;;7.68;3.88;;;22.50;64.90;;;;;;4963720;28;20561;-76
2022/09/10 12:07:29;;;;;;;7.35;3.60;;;22.40;65.10;;;;;;4962685;28;20130;-76
2022/09/10 12:10:21;;;;;;;7.05;3.53;;;22.60;65.70;;;;;;4962537;28;20049;-75
2022/09/10 12:12:48;;;;;;;8.45;3.83;;;22.50;65.30;;;;;;4962956;28;20134;-75
2022/09/10 12:15:17;;;;;;;9.82;4.10;;;22.50;65.40;;;;;;4963665;28;20023;-74
2022/09/10 12:17:47;;;;;;;11.80;5.10;;;22.60;65.60;;;;;;4965920;28;20042;-76
2022/09/10 12:20:19;;;;;;;8.60;3.92;;;22.70;65.10;;;;;;4958833;28;20047;-75
2022/09/10 12:22:50;;;;;;;9.45;3.78;;;23.00;64.70;;;;;;4976894;28;20040;-76
2022/09/10 12:25:15;;;;;;;10.52;4.22;;;22.90;62.70;;;;;;4978403;28;20030;-76
2022/09/10 12:27:48;;;;;;;10.75;3.78;;;22.90;63.90;;;;;;4984031;28;20034;-77
2022/09/10 12:30:38;;;;;;;8.80;3.38;;;22.80;63.20;;;;;;4984069;28;20056;-76
2022/09/10 12:33:15;;;;;;;8.93;3.55;;;23.00;64.00;;;;;;4982281;28;20052;-77
2022/09/10 12:35:47;;;;;;;8.77;3.90;;;23.50;62.40;;;;;;4982956;28;20104;-76
2022/09/10 12:39:02;;;;;;;10.55;4.22;;;23.30;61.90;;;;;;4981609;28;20109;-76
2022/09/10 12:41:27;;;;;;;9.27;3.60;;;23.00;63.30;;;;;;4962371;28;20031;-76
2022/09/10 12:43:55;;;;;;;9.52;3.90;;;23.00;63.10;;;;;;4967665;28;20405;-77
2022/09/10 12:46:24;;;;;;;9.23;3.45;;;23.00;62.70;;;;;;4980513;28;20129;-77
2022/09/10 12:49:05;;;;;;;12.88;3.47;;;23.10;62.70;;;;;;4982174;28;20494;-76
2022/09/10 12:51:48;;;;;;;8.48;3.40;;;23.30;62.50;;;;;;4986194;28;20050;-77
2022/09/10 12:54:45;;;;;;;8.10;3.57;;;23.30;61.20;;;;;;4989507;28;20050;-76
2022/09/10 12:57:37;;;;;;;8.23;3.30;;;22.90;62.50;;;;;;4991312;28;20034;-76